sensor_id;sensor_type;location;lat;lon;timestamp;temperature;humidity
75190;HTU21D;69198;44.694;37.790;2023-04-15T00:00:08;12.16;85.26
75190;HTU21D;69198;44.694;37.790;2023-04-15T00:01:16;12.15;85.32
75190;HTU21D;69198;44.694;37.790;2023-04-15T00:02:19;12.16;85.36
75190;HTU21D;69198;44.694;37.790;2023-04-15T00:03:19;12.16;85.39
75190;HTU21D;69198;44.694;37.790;2023-04-15T00:04:20;12.16;85.43
75190;HTU21D;69198;44.694;37.790;2023-04-15T00:05:21;12.16;85.45
75190;HTU21D;69198;44.694;37.790;2023-04-15T00:06:22;12.17;85.46
75190;HTU21D;69198;44.694;37.790;2023-04-15T00:07:24;12.17;85.45
75190;HTU21D;69198;44.694;37.790;2023-04-15T00:08:25;12.17;85.45
75190;HTU21D;69198;44.694;37.790;2023-04-15T00:09:26;12.17;85.43
75190;HTU21D;69198;44.694;37.790;2023-04-15T00:10:27;12.16;85.41
75190;HTU21D;69198;44.694;37.790;2023-04-15T00:11:28;12.17;85.36
75190;HTU21D;69198;44.694;37.790;2023-04-15T00:12:29;12.16;85.35
75190;HTU21D;69198;44.694;37.790;2023-04-15T00:13:31;12.15;85.30
75190;HTU21D;69198;44.694;37.790;2023-04-15T00:14:35;12.15;85.28
75190;HTU21D;69198;44.694;37.790;2023-04-15T00:15:36;12.14;85.29
75190;HTU21D;69198;44.694;37.790;2023-04-15T00:16:38;12.14;85.22
75190;HTU21D;69198;44.694;37.790;2023-04-15T00:17:39;12.14;85.19
75190;HTU21D;69198;44.694;37.790;2023-04-15T00:18:40;12.15;85.15
75190;HTU21D;69198;44.694;37.790;2023-04-15T00:19:40;12.15;85.11
75190;HTU21D;69198;44.694;37.790;2023-04-15T00:20:42;12.15;85.05
75190;HTU21D;69198;44.694;37.790;2023-04-15T00:21:43;12.16;84.98
75190;HTU21D;69198;44.694;37.790;2023-04-15T00:22:44;12.16;84.97
75190;HTU21D;69198;44.694;37.790;2023-04-15T00:23:45;12.16;84.93
75190;HTU21D;69198;44.694;37.790;2023-04-15T00:24:52;12.15;84.91
75190;HTU21D;69198;44.694;37.790;2023-04-15T00:25:53;12.16;84.90
75190;HTU21D;69198;44.694;37.790;2023-04-15T00:26:55;12.17;84.87
75190;HTU21D;69198;44.694;37.790;2023-04-15T00:27:57;12.16;84.81
75190;HTU21D;69198;44.694;37.790;2023-04-15T00:28:57;12.15;84.83
75190;HTU21D;69198;44.694;37.790;2023-04-15T00:29:58;12.14;84.84
75190;HTU21D;69198;44.694;37.790;2023-04-15T00:30:59;12.14;84.83
75190;HTU21D;69198;44.694;37.790;2023-04-15T00:32:00;12.13;84.83
75190;HTU21D;69198;44.694;37.790;2023-04-15T00:33:02;12.12;84.81
75190;HTU21D;69198;44.694;37.790;2023-04-15T00:34:03;12.10;84.81
75190;HTU21D;69198;44.694;37.790;2023-04-15T00:35:04;12.10;84.83
75190;HTU21D;69198;44.694;37.790;2023-04-15T00:36:06;12.10;84.85
75190;HTU21D;69198;44.694;37.790;2023-04-15T00:37:09;12.12;84.82
75190;HTU21D;69198;44.694;37.790;2023-04-15T00:38:10;12.11;84.82
75190;HTU21D;69198;44.694;37.790;2023-04-15T00:39:11;12.12;84.78
75190;HTU21D;69198;44.694;37.790;2023-04-15T00:40:12;12.13;84.76
75190;HTU21D;69198;44.694;37.790;2023-04-15T00:41:13;12.14;84.76
75190;HTU21D;69198;44.694;37.790;2023-04-15T00:42:14;12.13;84.73
75190;HTU21D;69198;44.694;37.790;2023-04-15T00:43:16;12.14;84.77
75190;HTU21D;69198;44.694;37.790;2023-04-15T00:44:18;12.13;84.79
75190;HTU21D;69198;44.694;37.790;2023-04-15T00:45:19;12.14;84.78
75190;HTU21D;69198;44.694;37.790;2023-04-15T00:46:21;12.13;84.78
75190;HTU21D;69198;44.694;37.790;2023-04-15T00:47:22;12.12;84.74
75190;HTU21D;69198;44.694;37.790;2023-04-15T00:48:25;12.12;84.69
75190;HTU21D;69198;44.694;37.790;2023-04-15T00:49:28;12.12;84.62
75190;HTU21D;69198;44.694;37.790;2023-04-15T00:50:29;12.10;84.57
75190;HTU21D;69198;44.694;37.790;2023-04-15T00:51:30;12.11;84.54
75190;HTU21D;69198;44.694;37.790;2023-04-15T00:52:33;12.11;84.50
75190;HTU21D;69198;44.694;37.790;2023-04-15T00:53:34;12.10;84.48
75190;HTU21D;69198;44.694;37.790;2023-04-15T00:54:35;12.10;84.45
75190;HTU21D;69198;44.694;37.790;2023-04-15T00:55:37;12.08;84.42
75190;HTU21D;69198;44.694;37.790;2023-04-15T00:56:38;12.11;84.42
75190;HTU21D;69198;44.694;37.790;2023-04-15T00:57:39;12.11;84.46
75190;HTU21D;69198;44.694;37.790;2023-04-15T00:58:41;12.10;84.47
75190;HTU21D;69198;44.694;37.790;2023-04-15T00:59:42;12.10;84.46
75190;HTU21D;69198;44.694;37.790;2023-04-15T01:00:43;12.11;84.46
75190;HTU21D;69198;44.694;37.790;2023-04-15T01:01:44;12.11;84.46
75190;HTU21D;69198;44.694;37.790;2023-04-15T01:02:47;12.11;84.48
75190;HTU21D;69198;44.694;37.790;2023-04-15T01:03:50;12.11;84.48
75190;HTU21D;69198;44.694;37.790;2023-04-15T01:04:51;12.12;84.45
75190;HTU21D;69198;44.694;37.790;2023-04-15T01:05:52;12.11;84.37
75190;HTU21D;69198;44.694;37.790;2023-04-15T01:06:57;12.13;84.30
75190;HTU21D;69198;44.694;37.790;2023-04-15T01:07:58;12.13;84.19
75190;HTU21D;69198;44.694;37.790;2023-04-15T01:09:00;12.14;84.10
75190;HTU21D;69198;44.694;37.790;2023-04-15T01:10:02;12.15;84.02
75190;HTU21D;69198;44.694;37.790;2023-04-15T01:11:04;12.13;83.98
75190;HTU21D;69198;44.694;37.790;2023-04-15T01:12:06;12.14;83.88
75190;HTU21D;69198;44.694;37.790;2023-04-15T01:13:08;12.12;83.86
75190;HTU21D;69198;44.694;37.790;2023-04-15T01:14:10;12.14;83.81
75190;HTU21D;69198;44.694;37.790;2023-04-15T01:15:11;12.15;83.76
75190;HTU21D;69198;44.694;37.790;2023-04-15T01:16:13;12.15;83.74
75190;HTU21D;69198;44.694;37.790;2023-04-15T01:17:14;12.15;83.74
75190;HTU21D;69198;44.694;37.790;2023-04-15T01:18:15;12.16;83.72
75190;HTU21D;69198;44.694;37.790;2023-04-15T01:19:16;12.16;83.71
75190;HTU21D;69198;44.694;37.790;2023-04-15T01:20:18;12.16;83.72
75190;HTU21D;69198;44.694;37.790;2023-04-15T01:21:20;12.16;83.74
75190;HTU21D;69198;44.694;37.790;2023-04-15T01:22:22;12.17;83.74
75190;HTU21D;69198;44.694;37.790;2023-04-15T01:23:23;12.16;83.77
75190;HTU21D;69198;44.694;37.790;2023-04-15T01:24:25;12.16;83.73
75190;HTU21D;69198;44.694;37.790;2023-04-15T01:25:32;12.17;83.73
75190;HTU21D;69198;44.694;37.790;2023-04-15T01:26:34;12.16;83.74
75190;HTU21D;69198;44.694;37.790;2023-04-15T01:27:38;12.17;83.72
75190;HTU21D;69198;44.694;37.790;2023-04-15T01:28:39;12.17;83.73
75190;HTU21D;69198;44.694;37.790;2023-04-15T01:29:40;12.17;83.74
75190;HTU21D;69198;44.694;37.790;2023-04-15T01:30:42;12.17;83.75
75190;HTU21D;69198;44.694;37.790;2023-04-15T01:31:54;12.21;83.68
75190;HTU21D;69198;44.694;37.790;2023-04-15T01:33:14;12.14;83.84
75190;HTU21D;69198;44.694;37.790;2023-04-15T01:34:34;12.11;83.77
75190;HTU21D;69198;44.694;37.790;2023-04-15T01:35:53;12.07;83.82
75190;HTU21D;69198;44.694;37.790;2023-04-15T01:36:59;12.07;83.78
75190;HTU21D;69198;44.694;37.790;2023-04-15T01:38:05;12.07;83.73
75190;HTU21D;69198;44.694;37.790;2023-04-15T01:39:07;12.06;83.73
75190;HTU21D;69198;44.694;37.790;2023-04-15T01:40:08;12.08;83.69
75190;HTU21D;69198;44.694;37.790;2023-04-15T01:41:12;12.10;83.66
75190;HTU21D;69198;44.694;37.790;2023-04-15T01:42:14;12.10;83.72
75190;HTU21D;69198;44.694;37.790;2023-04-15T01:43:17;12.11;83.73
75190;HTU21D;69198;44.694;37.790;2023-04-15T01:44:20;12.10;83.74
75190;HTU21D;69198;44.694;37.790;2023-04-15T01:45:22;12.12;83.75
75190;HTU21D;69198;44.694;37.790;2023-04-15T01:46:24;12.10;83.76
75190;HTU21D;69198;44.694;37.790;2023-04-15T01:47:28;12.08;83.81
75190;HTU21D;69198;44.694;37.790;2023-04-15T01:48:31;12.08;83.84
75190;HTU21D;69198;44.694;37.790;2023-04-15T01:49:34;12.08;83.80
75190;HTU21D;69198;44.694;37.790;2023-04-15T01:50:37;12.08;83.75
75190;HTU21D;69198;44.694;37.790;2023-04-15T01:51:39;12.07;83.76
75190;HTU21D;69198;44.694;37.790;2023-04-15T01:52:41;12.07;83.71
75190;HTU21D;69198;44.694;37.790;2023-04-15T01:53:44;12.07;83.75
75190;HTU21D;69198;44.694;37.790;2023-04-15T01:54:46;12.06;83.74
75190;HTU21D;69198;44.694;37.790;2023-04-15T01:55:48;12.05;83.76
75190;HTU21D;69198;44.694;37.790;2023-04-15T01:56:51;12.03;83.77
75190;HTU21D;69198;44.694;37.790;2023-04-15T01:57:53;12.04;83.82
75190;HTU21D;69198;44.694;37.790;2023-04-15T01:58:56;12.00;83.84
75190;HTU21D;69198;44.694;37.790;2023-04-15T01:59:58;12.01;83.87
75190;HTU21D;69198;44.694;37.790;2023-04-15T02:01:00;12.00;83.84
75190;HTU21D;69198;44.694;37.790;2023-04-15T02:02:06;11.98;83.83
75190;HTU21D;69198;44.694;37.790;2023-04-15T02:03:09;11.98;83.79
75190;HTU21D;69198;44.694;37.790;2023-04-15T02:04:11;11.99;83.78
75190;HTU21D;69198;44.694;37.790;2023-04-15T02:05:18;11.97;83.76
75190;HTU21D;69198;44.694;37.790;2023-04-15T02:06:22;11.96;83.78
75190;HTU21D;69198;44.694;37.790;2023-04-15T02:07:25;11.94;83.82
75190;HTU21D;69198;44.694;37.790;2023-04-15T02:08:27;11.93;83.82
75190;HTU21D;69198;44.694;37.790;2023-04-15T02:09:29;11.94;83.81
75190;HTU21D;69198;44.694;37.790;2023-04-15T02:10:32;11.93;83.84
75190;HTU21D;69198;44.694;37.790;2023-04-15T02:11:34;11.93;83.84
75190;HTU21D;69198;44.694;37.790;2023-04-15T02:12:39;11.92;83.83
75190;HTU21D;69198;44.694;37.790;2023-04-15T02:13:44;11.90;83.87
75190;HTU21D;69198;44.694;37.790;2023-04-15T02:14:47;11.89;83.88
75190;HTU21D;69198;44.694;37.790;2023-04-15T02:15:51;11.88;83.90
75190;HTU21D;69198;44.694;37.790;2023-04-15T02:16:54;11.88;83.92
75190;HTU21D;69198;44.694;37.790;2023-04-15T02:17:57;11.87;83.92
75190;HTU21D;69198;44.694;37.790;2023-04-15T02:19:00;11.86;83.93
75190;HTU21D;69198;44.694;37.790;2023-04-15T02:20:03;11.87;83.94
75190;HTU21D;69198;44.694;37.790;2023-04-15T02:21:09;11.85;83.98
75190;HTU21D;69198;44.694;37.790;2023-04-15T02:22:13;11.84;84.00
75190;HTU21D;69198;44.694;37.790;2023-04-15T02:23:21;11.83;84.04
75190;HTU21D;69198;44.694;37.790;2023-04-15T02:24:23;11.84;84.05
75190;HTU21D;69198;44.694;37.790;2023-04-15T02:25:25;11.83;84.03
75190;HTU21D;69198;44.694;37.790;2023-04-15T02:26:28;11.83;84.00
75190;HTU21D;69198;44.694;37.790;2023-04-15T02:27:33;11.84;83.98
75190;HTU21D;69198;44.694;37.790;2023-04-15T02:28:35;11.84;83.97
75190;HTU21D;69198;44.694;37.790;2023-04-15T02:29:37;11.84;83.99
75190;HTU21D;69198;44.694;37.790;2023-04-15T02:30:40;11.82;83.98
75190;HTU21D;69198;44.694;37.790;2023-04-15T02:31:42;11.81;84.00
75190;HTU21D;69198;44.694;37.790;2023-04-15T02:32:45;11.79;83.98
75190;HTU21D;69198;44.694;37.790;2023-04-15T02:33:49;11.79;83.96
75190;HTU21D;69198;44.694;37.790;2023-04-15T02:34:51;11.79;83.99
75190;HTU21D;69198;44.694;37.790;2023-04-15T02:35:54;11.78;84.00
75190;HTU21D;69198;44.694;37.790;2023-04-15T02:36:56;11.78;84.01
75190;HTU21D;69198;44.694;37.790;2023-04-15T02:37:58;11.77;84.03
75190;HTU21D;69198;44.694;37.790;2023-04-15T02:39:02;11.76;84.07
75190;HTU21D;69198;44.694;37.790;2023-04-15T02:40:09;11.75;84.10
75190;HTU21D;69198;44.694;37.790;2023-04-15T02:41:14;11.72;84.11
75190;HTU21D;69198;44.694;37.790;2023-04-15T02:42:17;11.73;84.06
75190;HTU21D;69198;44.694;37.790;2023-04-15T02:43:20;11.73;84.06
75190;HTU21D;69198;44.694;37.790;2023-04-15T02:44:22;11.71;84.07
75190;HTU21D;69198;44.694;37.790;2023-04-15T02:45:28;11.71;84.09
75190;HTU21D;69198;44.694;37.790;2023-04-15T02:46:30;11.71;84.11
75190;HTU21D;69198;44.694;37.790;2023-04-15T02:47:35;11.72;84.12
75190;HTU21D;69198;44.694;37.790;2023-04-15T02:48:39;11.68;84.16
75190;HTU21D;69198;44.694;37.790;2023-04-15T02:49:43;11.67;84.22
75190;HTU21D;69198;44.694;37.790;2023-04-15T02:50:46;11.64;84.25
75190;HTU21D;69198;44.694;37.790;2023-04-15T02:51:50;11.61;84.33
75190;HTU21D;69198;44.694;37.790;2023-04-15T02:52:53;11.58;84.39
75190;HTU21D;69198;44.694;37.790;2023-04-15T02:53:55;11.58;84.45
75190;HTU21D;69198;44.694;37.790;2023-04-15T02:54:59;11.55;84.48
75190;HTU21D;69198;44.694;37.790;2023-04-15T02:56:05;11.54;84.52
75190;HTU21D;69198;44.694;37.790;2023-04-15T02:57:07;11.55;84.55
75190;HTU21D;69198;44.694;37.790;2023-04-15T02:58:09;11.54;84.57
75190;HTU21D;69198;44.694;37.790;2023-04-15T02:59:12;11.56;84.53
75190;HTU21D;69198;44.694;37.790;2023-04-15T03:00:14;11.57;84.52
75190;HTU21D;69198;44.694;37.790;2023-04-15T03:01:18;11.58;84.52
75190;HTU21D;69198;44.694;37.790;2023-04-15T03:02:21;11.59;84.51
75190;HTU21D;69198;44.694;37.790;2023-04-15T03:03:23;11.60;84.48
75190;HTU21D;69198;44.694;37.790;2023-04-15T03:04:26;11.64;84.36
75190;HTU21D;69198;44.694;37.790;2023-04-15T03:05:31;11.69;84.27
75190;HTU21D;69198;44.694;37.790;2023-04-15T03:06:34;11.72;84.19
75190;HTU21D;69198;44.694;37.790;2023-04-15T03:07:37;11.75;84.10
75190;HTU21D;69198;44.694;37.790;2023-04-15T03:08:39;11.76;84.03
75190;HTU21D;69198;44.694;37.790;2023-04-15T03:09:41;11.82;83.93
75190;HTU21D;69198;44.694;37.790;2023-04-15T03:10:44;11.87;83.85
75190;HTU21D;69198;44.694;37.790;2023-04-15T03:11:46;12.01;83.71
75190;HTU21D;69198;44.694;37.790;2023-04-15T03:12:48;12.27;83.27
75190;HTU21D;69198;44.694;37.790;2023-04-15T03:13:53;12.65;82.52
75190;HTU21D;69198;44.694;37.790;2023-04-15T03:15:03;13.15;81.46
75190;HTU21D;69198;44.694;37.790;2023-04-15T03:16:11;13.64;80.21
75190;HTU21D;69198;44.694;37.790;2023-04-15T03:17:13;14.10;79.10
75190;HTU21D;69198;44.694;37.790;2023-04-15T03:18:17;14.55;77.93
75190;HTU21D;69198;44.694;37.790;2023-04-15T03:19:19;14.92;76.93
75190;HTU21D;69198;44.694;37.790;2023-04-15T03:20:22;15.24;76.01
75190;HTU21D;69198;44.694;37.790;2023-04-15T03:21:24;15.59;75.20
75190;HTU21D;69198;44.694;37.790;2023-04-15T03:22:28;15.96;74.23
75190;HTU21D;69198;44.694;37.790;2023-04-15T03:23:31;16.27;73.24
75190;HTU21D;69198;44.694;37.790;2023-04-15T03:24:33;16.52;72.58
75190;HTU21D;69198;44.694;37.790;2023-04-15T03:25:35;16.76;71.77
75190;HTU21D;69198;44.694;37.790;2023-04-15T03:26:39;16.98;71.16
75190;HTU21D;69198;44.694;37.790;2023-04-15T03:27:47;17.25;70.44
75190;HTU21D;69198;44.694;37.790;2023-04-15T03:28:49;17.50;69.57
75190;HTU21D;69198;44.694;37.790;2023-04-15T03:29:53;17.70;68.97
75190;HTU21D;69198;44.694;37.790;2023-04-15T03:30:58;17.98;68.30
75190;HTU21D;69198;44.694;37.790;2023-04-15T03:32:01;18.30;67.36
75190;HTU21D;69198;44.694;37.790;2023-04-15T03:33:07;18.61;66.63
75190;HTU21D;69198;44.694;37.790;2023-04-15T03:34:10;18.89;65.91
75190;HTU21D;69198;44.694;37.790;2023-04-15T03:35:13;19.17;64.95
75190;HTU21D;69198;44.694;37.790;2023-04-15T03:36:15;19.43;64.35
75190;HTU21D;69198;44.694;37.790;2023-04-15T03:37:17;19.82;63.39
75190;HTU21D;69198;44.694;37.790;2023-04-15T03:38:19;20.12;62.43
75190;HTU21D;69198;44.694;37.790;2023-04-15T03:39:22;20.43;61.48
75190;HTU21D;69198;44.694;37.790;2023-04-15T03:40:24;20.58;60.83
75190;HTU21D;69198;44.694;37.790;2023-04-15T03:41:27;20.78;60.25
75190;HTU21D;69198;44.694;37.790;2023-04-15T03:42:29;21.02;59.66
75190;HTU21D;69198;44.694;37.790;2023-04-15T03:43:32;21.23;58.58
75190;HTU21D;69198;44.694;37.790;2023-04-15T03:44:34;21.29;57.90
75190;HTU21D;69198;44.694;37.790;2023-04-15T03:45:37;21.33;57.72
75190;HTU21D;69198;44.694;37.790;2023-04-15T03:46:39;21.47;57.14
75190;HTU21D;69198;44.694;37.790;2023-04-15T03:47:41;21.62;56.66
75190;HTU21D;69198;44.694;37.790;2023-04-15T03:48:44;21.74;56.18
75190;HTU21D;69198;44.694;37.790;2023-04-15T03:49:46;21.87;55.71
75190;HTU21D;69198;44.694;37.790;2023-04-15T03:50:48;21.84;55.09
75190;HTU21D;69198;44.694;37.790;2023-04-15T03:51:51;21.77;54.83
75190;HTU21D;69198;44.694;37.790;2023-04-15T03:52:53;21.68;54.80
75190;HTU21D;69198;44.694;37.790;2023-04-15T03:53:55;21.69;54.48
75190;HTU21D;69198;44.694;37.790;2023-04-15T03:54:57;21.66;53.94
75190;HTU21D;69198;44.694;37.790;2023-04-15T03:56:00;21.61;53.84
75190;HTU21D;69198;44.694;37.790;2023-04-15T03:57:02;21.60;53.59
75190;HTU21D;69198;44.694;37.790;2023-04-15T03:58:04;21.66;53.44
75190;HTU21D;69198;44.694;37.790;2023-04-15T03:59:07;21.76;52.97
75190;HTU21D;69198;44.694;37.790;2023-04-15T04:00:09;21.77;52.69
75190;HTU21D;69198;44.694;37.790;2023-04-15T04:01:14;21.80;52.38
75190;HTU21D;69198;44.694;37.790;2023-04-15T04:02:17;21.77;52.21
75190;HTU21D;69198;44.694;37.790;2023-04-15T04:03:20;21.72;52.15
75190;HTU21D;69198;44.694;37.790;2023-04-15T04:04:22;21.63;51.85
75190;HTU21D;69198;44.694;37.790;2023-04-15T04:05:24;21.49;52.01
75190;HTU21D;69198;44.694;37.790;2023-04-15T04:06:27;21.39;51.98
75190;HTU21D;69198;44.694;37.790;2023-04-15T04:07:29;21.35;52.03
75190;HTU21D;69198;44.694;37.790;2023-04-15T04:08:31;21.33;51.90
75190;HTU21D;69198;44.694;37.790;2023-04-15T04:09:34;21.29;51.85
75190;HTU21D;69198;44.694;37.790;2023-04-15T04:10:36;21.27;51.62
75190;HTU21D;69198;44.694;37.790;2023-04-15T04:11:38;21.24;51.41
75190;HTU21D;69198;44.694;37.790;2023-04-15T04:12:40;21.23;51.28
75190;HTU21D;69198;44.694;37.790;2023-04-15T04:13:42;21.19;51.27
75190;HTU21D;69198;44.694;37.790;2023-04-15T04:14:45;21.25;51.18
75190;HTU21D;69198;44.694;37.790;2023-04-15T04:15:47;21.30;50.94
75190;HTU21D;69198;44.694;37.790;2023-04-15T04:16:50;21.35;50.79
75190;HTU21D;69198;44.694;37.790;2023-04-15T04:17:52;21.39;50.52
75190;HTU21D;69198;44.694;37.790;2023-04-15T04:18:54;21.45;50.31
75190;HTU21D;69198;44.694;37.790;2023-04-15T04:19:56;21.44;50.14
75190;HTU21D;69198;44.694;37.790;2023-04-15T04:20:59;21.45;50.03
75190;HTU21D;69198;44.694;37.790;2023-04-15T04:22:01;21.42;49.82
75190;HTU21D;69198;44.694;37.790;2023-04-15T04:23:04;21.36;49.85
75190;HTU21D;69198;44.694;37.790;2023-04-15T04:24:06;21.30;49.80
75190;HTU21D;69198;44.694;37.790;2023-04-15T04:25:08;21.27;49.80
75190;HTU21D;69198;44.694;37.790;2023-04-15T04:26:11;21.23;49.74
75190;HTU21D;69198;44.694;37.790;2023-04-15T04:27:13;21.24;49.76
75190;HTU21D;69198;44.694;37.790;2023-04-15T04:28:15;21.29;49.65
75190;HTU21D;69198;44.694;37.790;2023-04-15T04:29:17;21.32;49.59
75190;HTU21D;69198;44.694;37.790;2023-04-15T04:30:19;21.37;49.57
75190;HTU21D;69198;44.694;37.790;2023-04-15T04:31:22;21.50;49.35
75190;HTU21D;69198;44.694;37.790;2023-04-15T04:32:24;21.60;49.17
75190;HTU21D;69198;44.694;37.790;2023-04-15T04:33:26;21.65;48.99
75190;HTU21D;69198;44.694;37.790;2023-04-15T04:34:29;21.68;48.82
75190;HTU21D;69198;44.694;37.790;2023-04-15T04:35:31;21.67;48.73
75190;HTU21D;69198;44.694;37.790;2023-04-15T04:36:35;21.66;48.83
75190;HTU21D;69198;44.694;37.790;2023-04-15T04:37:37;21.66;48.82
75190;HTU21D;69198;44.694;37.790;2023-04-15T04:38:39;21.68;48.88
75190;HTU21D;69198;44.694;37.790;2023-04-15T04:39:42;21.72;48.85
75190;HTU21D;69198;44.694;37.790;2023-04-15T04:40:44;21.76;48.86
75190;HTU21D;69198;44.694;37.790;2023-04-15T04:41:46;21.78;48.79
75190;HTU21D;69198;44.694;37.790;2023-04-15T04:42:48;21.81;48.79
75190;HTU21D;69198;44.694;37.790;2023-04-15T04:43:51;21.89;48.86
75190;HTU21D;69198;44.694;37.790;2023-04-15T04:44:53;21.97;48.75
75190;HTU21D;69198;44.694;37.790;2023-04-15T04:45:55;22.04;48.55
75190;HTU21D;69198;44.694;37.790;2023-04-15T04:46:57;22.03;48.37
75190;HTU21D;69198;44.694;37.790;2023-04-15T04:48:00;22.02;48.37
75190;HTU21D;69198;44.694;37.790;2023-04-15T04:49:02;22.01;48.42
75190;HTU21D;69198;44.694;37.790;2023-04-15T04:50:05;21.98;48.34
75190;HTU21D;69198;44.694;37.790;2023-04-15T04:51:07;21.97;48.44
75190;HTU21D;69198;44.694;37.790;2023-04-15T04:52:10;22.03;48.44
75190;HTU21D;69198;44.694;37.790;2023-04-15T04:53:12;22.10;48.28
75190;HTU21D;69198;44.694;37.790;2023-04-15T04:54:15;22.18;48.12
75190;HTU21D;69198;44.694;37.790;2023-04-15T04:55:18;22.24;47.96
75190;HTU21D;69198;44.694;37.790;2023-04-15T04:56:20;22.28;47.91
75190;HTU21D;69198;44.694;37.790;2023-04-15T04:57:23;22.29;47.61
75190;HTU21D;69198;44.694;37.790;2023-04-15T04:58:25;22.27;47.34
75190;HTU21D;69198;44.694;37.790;2023-04-15T04:59:28;22.27;47.40
75190;HTU21D;69198;44.694;37.790;2023-04-15T05:00:30;22.37;47.28
75190;HTU21D;69198;44.694;37.790;2023-04-15T05:01:32;22.48;46.86
75190;HTU21D;69198;44.694;37.790;2023-04-15T05:02:35;22.47;46.79
75190;HTU21D;69198;44.694;37.790;2023-04-15T05:03:37;22.46;46.71
75190;HTU21D;69198;44.694;37.790;2023-04-15T05:04:39;22.41;46.62
75190;HTU21D;69198;44.694;37.790;2023-04-15T05:05:42;22.43;46.56
75190;HTU21D;69198;44.694;37.790;2023-04-15T05:06:44;22.46;46.40
75190;HTU21D;69198;44.694;37.790;2023-04-15T05:07:47;22.53;46.30
75190;HTU21D;69198;44.694;37.790;2023-04-15T05:08:51;22.53;46.09
75190;HTU21D;69198;44.694;37.790;2023-04-15T05:09:53;22.52;46.10
75190;HTU21D;69198;44.694;37.790;2023-04-15T05:10:55;22.48;45.93
75190;HTU21D;69198;44.694;37.790;2023-04-15T05:11:57;22.39;46.23
75190;HTU21D;69198;44.694;37.790;2023-04-15T05:13:00;22.38;46.26
75190;HTU21D;69198;44.694;37.790;2023-04-15T05:14:02;22.44;46.18
75190;HTU21D;69198;44.694;37.790;2023-04-15T05:15:05;22.38;46.01
75190;HTU21D;69198;44.694;37.790;2023-04-15T05:16:07;22.34;46.26
75190;HTU21D;69198;44.694;37.790;2023-04-15T05:17:10;22.32;46.26
75190;HTU21D;69198;44.694;37.790;2023-04-15T05:18:12;22.31;46.24
75190;HTU21D;69198;44.694;37.790;2023-04-15T05:19:14;22.32;46.37
75190;HTU21D;69198;44.694;37.790;2023-04-15T05:20:16;22.32;46.34
75190;HTU21D;69198;44.694;37.790;2023-04-15T05:21:19;22.34;46.31
75190;HTU21D;69198;44.694;37.790;2023-04-15T05:22:21;22.40;46.39
75190;HTU21D;69198;44.694;37.790;2023-04-15T05:23:24;22.47;46.19
75190;HTU21D;69198;44.694;37.790;2023-04-15T05:24:26;22.46;46.15
75190;HTU21D;69198;44.694;37.790;2023-04-15T05:25:28;22.55;46.25
75190;HTU21D;69198;44.694;37.790;2023-04-15T05:26:30;22.68;46.17
75190;HTU21D;69198;44.694;37.790;2023-04-15T05:27:32;22.85;45.91
75190;HTU21D;69198;44.694;37.790;2023-04-15T05:28:35;22.95;45.39
75190;HTU21D;69198;44.694;37.790;2023-04-15T05:29:37;22.98;45.13
75190;HTU21D;69198;44.694;37.790;2023-04-15T05:30:39;22.95;45.10
75190;HTU21D;69198;44.694;37.790;2023-04-15T05:31:42;22.92;45.25
75190;HTU21D;69198;44.694;37.790;2023-04-15T05:32:44;22.94;44.95
75190;HTU21D;69198;44.694;37.790;2023-04-15T05:33:46;22.93;44.87
75190;HTU21D;69198;44.694;37.790;2023-04-15T05:34:48;22.95;44.66
75190;HTU21D;69198;44.694;37.790;2023-04-15T05:35:51;22.95;44.59
75190;HTU21D;69198;44.694;37.790;2023-04-15T05:36:53;22.95;44.58
75190;HTU21D;69198;44.694;37.790;2023-04-15T05:37:55;22.93;44.45
75190;HTU21D;69198;44.694;37.790;2023-04-15T05:38:57;22.95;44.45
75190;HTU21D;69198;44.694;37.790;2023-04-15T05:40:00;22.91;44.22
75190;HTU21D;69198;44.694;37.790;2023-04-15T05:41:02;22.78;44.24
75190;HTU21D;69198;44.694;37.790;2023-04-15T05:42:04;22.71;44.25
75190;HTU21D;69198;44.694;37.790;2023-04-15T05:43:07;22.64;44.31
75190;HTU21D;69198;44.694;37.790;2023-04-15T05:44:09;22.63;44.66
75190;HTU21D;69198;44.694;37.790;2023-04-15T05:45:11;22.64;44.41
75190;HTU21D;69198;44.694;37.790;2023-04-15T05:46:14;22.68;44.39
75190;HTU21D;69198;44.694;37.790;2023-04-15T05:47:16;22.72;44.30
75190;HTU21D;69198;44.694;37.790;2023-04-15T05:48:19;22.70;44.17
75190;HTU21D;69198;44.694;37.790;2023-04-15T05:49:21;22.64;44.02
75190;HTU21D;69198;44.694;37.790;2023-04-15T05:50:23;22.63;44.19
75190;HTU21D;69198;44.694;37.790;2023-04-15T05:51:25;22.71;44.19
75190;HTU21D;69198;44.694;37.790;2023-04-15T05:52:28;22.76;43.98
75190;HTU21D;69198;44.694;37.790;2023-04-15T05:53:30;22.79;43.95
75190;HTU21D;69198;44.694;37.790;2023-04-15T05:54:32;22.78;43.77
75190;HTU21D;69198;44.694;37.790;2023-04-15T05:55:35;22.73;43.80
75190;HTU21D;69198;44.694;37.790;2023-04-15T05:56:37;22.70;44.09
75190;HTU21D;69198;44.694;37.790;2023-04-15T05:57:39;22.80;44.19
75190;HTU21D;69198;44.694;37.790;2023-04-15T05:58:41;23.00;44.06
75190;HTU21D;69198;44.694;37.790;2023-04-15T05:59:43;23.21;43.58
75190;HTU21D;69198;44.694;37.790;2023-04-15T06:00:46;23.31;43.18
75190;HTU21D;69198;44.694;37.790;2023-04-15T06:01:48;23.32;43.03
75190;HTU21D;69198;44.694;37.790;2023-04-15T06:02:51;23.32;42.91
75190;HTU21D;69198;44.694;37.790;2023-04-15T06:03:53;23.32;42.88
75190;HTU21D;69198;44.694;37.790;2023-04-15T06:04:56;23.34;42.64
75190;HTU21D;69198;44.694;37.790;2023-04-15T06:05:58;23.34;42.59
75190;HTU21D;69198;44.694;37.790;2023-04-15T06:07:01;23.37;42.64
75190;HTU21D;69198;44.694;37.790;2023-04-15T06:08:04;23.44;42.42
75190;HTU21D;69198;44.694;37.790;2023-04-15T06:09:06;23.52;42.21
75190;HTU21D;69198;44.694;37.790;2023-04-15T06:10:08;23.59;42.10
75190;HTU21D;69198;44.694;37.790;2023-04-15T06:11:14;23.61;41.71
75190;HTU21D;69198;44.694;37.790;2023-04-15T06:12:16;23.55;41.49
75190;HTU21D;69198;44.694;37.790;2023-04-15T06:13:18;23.45;41.55
75190;HTU21D;69198;44.694;37.790;2023-04-15T06:14:20;23.38;41.62
75190;HTU21D;69198;44.694;37.790;2023-04-15T06:15:23;23.30;41.74
75190;HTU21D;69198;44.694;37.790;2023-04-15T06:16:25;23.21;41.93
75190;HTU21D;69198;44.694;37.790;2023-04-15T06:17:28;23.21;42.11
75190;HTU21D;69198;44.694;37.790;2023-04-15T06:18:30;23.16;41.75
75190;HTU21D;69198;44.694;37.790;2023-04-15T06:19:32;23.08;41.90
75190;HTU21D;69198;44.694;37.790;2023-04-15T06:20:35;23.07;42.17
75190;HTU21D;69198;44.694;37.790;2023-04-15T06:21:38;23.08;41.79
75190;HTU21D;69198;44.694;37.790;2023-04-15T06:22:40;23.00;41.91
75190;HTU21D;69198;44.694;37.790;2023-04-15T06:23:42;22.95;41.96